createdAt,value
2023-05-08T00:07:07.531Z,3.55
2023-05-08T00:17:29.347Z,3.50
2023-05-08T00:27:51.025Z,3.20
2023-05-08T00:38:12.490Z,3.13
2023-05-08T00:48:35.455Z,3.05
2023-05-08T00:58:56.837Z,3.35
2023-05-08T01:09:18.172Z,3.30
2023-05-08T01:19:48.080Z,3.10
2023-05-08T01:30:32.387Z,3.45
2023-05-08T01:41:07.832Z,3.45
2023-05-08T01:51:35.288Z,3.65
2023-05-08T02:01:57.844Z,3.50
2023-05-08T02:12:20.007Z,2.95
2023-05-08T02:22:45.443Z,3.38
2023-05-08T02:33:08.944Z,3.40
2023-05-08T02:43:30.792Z,3.05
2023-05-08T02:53:59.912Z,3.75
2023-05-08T03:04:32.721Z,3.42
2023-05-08T03:15:05.024Z,3.05
2023-05-08T03:25:27.519Z,3.05
2023-05-08T03:35:50.215Z,3.20
2023-05-08T03:46:11.975Z,2.92
2023-05-08T03:56:34.112Z,3.42
2023-05-08T04:06:55.325Z,3.20
2023-05-08T04:17:33.665Z,3.15
2023-05-08T04:27:56.307Z,3.05
2023-05-08T04:38:18.308Z,2.90
2023-05-08T04:48:39.980Z,3.10
2023-05-08T04:59:01.516Z,2.97
2023-05-08T05:09:25.546Z,3.00
2023-05-08T05:19:47.698Z,2.75
2023-05-08T05:30:09.352Z,2.75
2023-05-08T05:40:31.966Z,2.70
2023-05-08T05:50:53.191Z,2.70
2023-05-08T06:01:14.992Z,3.00
2023-05-08T06:11:36.681Z,2.30
2023-05-08T06:21:58.292Z,2.45
2023-05-08T06:32:21.208Z,2.53
2023-05-08T06:42:42.870Z,2.97
2023-05-08T06:53:03.929Z,2.58
2023-05-08T07:03:25.307Z,2.67
2023-05-08T07:13:48.621Z,2.55
2023-05-08T07:24:09.669Z,2.70
2023-05-08T07:34:33.864Z,2.40
2023-05-08T07:44:55.438Z,2.35
2023-05-08T07:55:17.152Z,2.40
2023-05-08T08:05:38.727Z,2.70
2023-05-08T08:16:00.984Z,2.60
2023-05-08T08:26:22.155Z,2.72
2023-05-08T08:36:43.399Z,3.28
2023-05-08T08:47:05.839Z,2.58
2023-05-08T08:57:29.077Z,2.63
2023-05-08T09:07:51.503Z,2.58
2023-05-08T09:18:12.855Z,2.47
2023-05-08T09:28:34.430Z,2.90
2023-05-08T09:38:55.604Z,2.55
2023-05-08T09:49:18.185Z,2.42
2023-05-08T09:59:39.851Z,2.45
2023-05-08T10:10:03.119Z,2.58
2023-05-08T10:20:26.113Z,2.53
2023-05-08T10:30:51.153Z,2.58
2023-05-08T10:41:14.143Z,2.47
2023-05-08T10:51:42.352Z,2.58
2023-05-08T11:02:08.655Z,2.63
2023-05-08T11:12:31.482Z,2.40
2023-05-08T11:22:52.656Z,2.60
2023-05-08T11:33:15.038Z,2.80
2023-05-08T11:44:15.108Z,2.72
2023-05-08T11:54:36.790Z,2.67
2023-05-08T12:04:58.065Z,2.60
2023-05-08T12:15:19.563Z,2.67
2023-05-08T12:25:40.966Z,2.40
2023-05-08T12:36:02.634Z,2.40
2023-05-08T12:46:23.794Z,2.42
2023-05-08T12:56:45.283Z,2.38
2023-05-08T13:07:06.173Z,2.25
2023-05-08T13:17:27.206Z,2.40
2023-05-08T13:27:48.895Z,2.13
2023-05-08T13:38:10.239Z,2.08
2023-05-08T13:48:31.316Z,2.30
2023-05-08T13:58:52.660Z,2.65
2023-05-08T14:09:14.347Z,2.00
2023-05-08T14:19:35.726Z,2.20
2023-05-08T14:29:56.982Z,2.40
2023-05-08T14:40:18.065Z,2.08
2023-05-08T14:50:39.354Z,2.17
2023-05-08T15:01:00.770Z,2.22
2023-05-08T15:21:49.690Z,2.05
2023-05-08T15:32:11.346Z,2.28
2023-05-08T15:42:32.479Z,1.85
2023-05-08T15:52:53.598Z,1.60
2023-05-08T16:03:14.970Z,1.77
2023-05-08T16:13:36.362Z,2.22
2023-05-08T16:23:57.973Z,1.70
2023-05-08T16:34:19.026Z,1.77
2023-05-08T16:44:40.480Z,1.77
2023-05-08T16:55:01.712Z,1.50
2023-05-08T17:05:23.112Z,1.77
2023-05-08T17:15:44.002Z,1.58
2023-05-08T17:26:05.095Z,1.70
2023-05-08T17:36:26.204Z,1.52
2023-05-08T17:46:47.678Z,1.70
2023-05-08T17:57:09.217Z,1.55
2023-05-08T18:07:31.462Z,1.83
2023-05-08T18:17:53.813Z,1.85
2023-05-08T18:28:14.975Z,1.60
2023-05-08T18:38:36.595Z,1.58
2023-05-08T18:48:57.895Z,2.00
2023-05-08T18:59:18.916Z,1.60
2023-05-08T19:09:39.907Z,1.40
2023-05-08T19:20:01.122Z,1.80
2023-05-08T19:30:22.371Z,1.50
2023-05-08T19:40:55.430Z,1.50
2023-05-08T19:51:18.976Z,1.77
2023-05-08T20:01:40.186Z,1.90
2023-05-08T20:12:01.684Z,1.73
2023-05-08T20:22:22.685Z,1.80
2023-05-08T20:32:43.772Z,1.80
2023-05-08T20:43:05.208Z,2.10
2023-05-08T20:53:26.549Z,2.40
2023-05-08T21:03:47.813Z,2.03
2023-05-08T21:14:09.340Z,2.17
2023-05-08T21:24:30.548Z,2.13
2023-05-08T21:34:51.731Z,1.83
2023-05-08T21:45:13.427Z,1.95
2023-05-08T21:55:34.831Z,2.25
2023-05-08T22:05:56.198Z,2.33
2023-05-08T22:16:18.072Z,1.90
2023-05-08T22:26:39.343Z,2.20
2023-05-08T22:37:00.679Z,2.20
2023-05-08T22:47:22.047Z,1.92
2023-05-08T22:57:43.667Z,2.30
2023-05-08T23:08:05.236Z,1.85
2023-05-08T23:18:26.440Z,2.10
2023-05-08T23:28:47.785Z,2.15
2023-05-08T23:39:09.121Z,2.15
2023-05-08T23:49:30.045Z,2.20
2023-05-08T23:59:51.162Z,1.98
